createdAt,value
2022-10-10T00:00:26.297Z,101136.00
2022-10-10T00:01:30.947Z,101135.16
2022-10-10T00:02:33.533Z,101137.94
2022-10-10T00:03:35.043Z,101134.31
2022-10-10T00:04:37.756Z,101132.63
2022-10-10T00:05:40.159Z,101137.09
2022-10-10T00:06:43.997Z,101136.13
2022-10-10T00:07:45.544Z,101139.75
2022-10-10T00:08:48.580Z,101138.91
2022-10-10T00:09:50.088Z,101136.38
2022-10-10T00:10:52.560Z,101139.84
2022-10-10T00:11:54.123Z,101132.03
2022-10-10T00:12:56.633Z,101134.69
2022-10-10T00:13:58.966Z,101134.78
2022-10-10T00:15:01.618Z,101141.78
2022-10-10T00:16:04.308Z,101129.47
2022-10-10T00:17:06.842Z,101141.78
2022-10-10T00:18:08.899Z,101133.81
2022-10-10T00:19:11.415Z,101130.31
2022-10-10T00:20:15.410Z,101133.94
2022-10-10T00:21:18.059Z,101124.16
2022-10-10T00:22:20.907Z,101132.25
2022-10-10T00:23:23.483Z,101126.09
2022-10-10T00:24:24.990Z,101131.41
2022-10-10T00:25:27.737Z,101127.06
2022-10-10T00:26:29.659Z,101131.50
2022-10-10T00:27:32.197Z,101134.16
2022-10-10T00:28:33.837Z,101133.34
2022-10-10T00:29:36.363Z,101131.66
2022-10-10T00:30:38.372Z,101130.81
2022-10-10T00:31:40.855Z,101139.72
2022-10-10T00:32:42.365Z,101137.91
2022-10-10T00:33:45.445Z,101138.88
2022-10-10T00:34:46.961Z,101134.53
2022-10-10T00:35:50.176Z,101131.88
2022-10-10T00:36:51.699Z,101132.84
2022-10-10T00:37:55.740Z,101126.56
2022-10-10T00:38:57.371Z,101132.84
2022-10-10T00:39:59.887Z,101138.16
2022-10-10T00:41:02.093Z,101131.16
2022-10-10T00:42:04.876Z,101132.97
2022-10-10T00:43:06.410Z,101137.44
2022-10-10T00:44:11.035Z,101131.38
2022-10-10T00:45:33.127Z,101139.34
2022-10-10T00:46:35.976Z,101137.69
2022-10-10T00:47:37.531Z,101137.69
2022-10-10T00:48:43.215Z,101135.03
2022-10-10T00:49:44.741Z,101130.78
2022-10-10T00:50:51.573Z,101132.59
2022-10-10T00:51:58.484Z,101119.44
2022-10-10T00:53:03.709Z,101130.06
2022-10-10T00:54:09.665Z,101127.50
2022-10-10T00:55:12.590Z,101127.50
2022-10-10T00:56:17.571Z,101121.38
2022-10-10T00:57:19.118Z,101124.97
2022-10-10T00:58:22.716Z,101110.97
2022-10-10T00:59:25.668Z,101123.28
2022-10-10T01:00:29.844Z,101117.13
2022-10-10T01:01:31.532Z,101122.41
2022-10-10T01:02:34.101Z,101117.13
2022-10-10T01:03:35.788Z,101116.41
2022-10-10T01:04:45.272Z,101112.91
2022-10-10T01:05:48.255Z,101109.38
2022-10-10T01:06:50.744Z,101121.81
2022-10-10T01:07:52.628Z,101115.69
2022-10-10T01:08:58.004Z,101116.63
2022-10-10T01:10:04.128Z,101111.31
2022-10-10T01:11:28.673Z,101106.00
2022-10-10T01:12:40.674Z,101109.53
2022-10-10T01:13:52.883Z,101109.63
2022-10-10T01:15:00.030Z,101106.13
2022-10-10T01:16:08.272Z,101101.78
2022-10-10T01:17:14.689Z,101107.16
2022-10-10T01:18:26.081Z,101107.16
2022-10-10T01:19:55.388Z,101108.97
2022-10-10T01:21:06.456Z,101106.31
2022-10-10T01:22:21.350Z,101110.78
2022-10-10T01:23:54.496Z,101111.03
2022-10-10T01:25:02.445Z,101108.34
2022-10-10T01:26:22.643Z,101101.38
2022-10-10T01:27:33.128Z,101104.88
2022-10-10T01:28:44.211Z,101100.53
2022-10-10T01:29:52.064Z,101097.03
2022-10-10T01:30:58.114Z,101090.00
2022-10-10T01:32:05.345Z,101091.00
2022-10-10T01:33:13.940Z,101096.41
2022-10-10T01:34:23.726Z,101092.91
2022-10-10T01:45:46.770Z,101087.13
2022-10-10T01:46:48.472Z,101085.31
2022-10-10T01:47:53.513Z,101086.25
2022-10-10T01:48:58.150Z,101079.25
2022-10-10T01:50:04.416Z,101085.41
2022-10-10T01:51:21.330Z,101085.56
2022-10-10T01:52:36.874Z,101080.34
2022-10-10T01:53:43.752Z,101085.66
2022-10-10T01:54:55.867Z,101081.19
2022-10-10T01:56:08.218Z,101077.78
2022-10-10T01:57:22.884Z,101077.78
2022-10-10T01:58:47.816Z,101076.97
2022-10-10T02:00:01.950Z,101071.75
2022-10-10T02:01:16.474Z,101079.72
2022-10-10T02:02:28.375Z,101077.22
2022-10-10T02:03:36.076Z,101074.41
2022-10-10T02:04:43.072Z,101079.88
2022-10-10T02:05:49.239Z,101071.06
2022-10-10T02:06:56.248Z,101072.84
2022-10-10T02:08:03.255Z,101072.09
2022-10-10T02:09:09.671Z,101068.50
2022-10-10T02:10:14.458Z,101075.50
2022-10-10T02:11:17.007Z,101074.66
2022-10-10T02:12:20.362Z,101066.78
2022-10-10T02:13:26.611Z,101070.31
2022-10-10T02:14:33.095Z,101063.19
2022-10-10T02:25:48.410Z,101060.06
2022-10-10T02:26:55.394Z,101065.34
2022-10-10T02:28:07.687Z,101063.66
2022-10-10T02:29:11.637Z,101059.31
2022-10-10T02:30:15.311Z,101062.81
2022-10-10T02:31:24.748Z,101061.97
2022-10-10T02:32:33.013Z,101051.34
2022-10-10T02:33:41.646Z,101055.78
2022-10-10T02:34:48.937Z,101057.50
2022-10-10T02:35:53.057Z,101049.69
2022-10-10T02:36:58.710Z,101054.97
2022-10-10T02:38:04.053Z,101049.69
2022-10-10T02:39:08.312Z,101055.94
2022-10-10T02:40:12.710Z,101053.28
2022-10-10T02:41:19.369Z,101046.28
2022-10-10T02:42:24.184Z,101045.31
2022-10-10T02:43:26.901Z,101047.97
2022-10-10T02:44:28.548Z,101042.66
2022-10-10T02:45:33.064Z,101046.28
2022-10-10T02:46:34.639Z,101044.47
2022-10-10T02:47:37.204Z,101040.97
2022-10-10T02:48:38.863Z,101040.97
2022-10-10T02:49:42.176Z,101042.66
2022-10-10T02:50:44.170Z,101045.41
2022-10-10T02:51:46.654Z,101040.13
2022-10-10T02:52:48.580Z,101040.97
2022-10-10T02:53:51.320Z,101039.28
2022-10-10T02:54:52.856Z,101034.81
2022-10-10T02:55:55.474Z,101039.28
2022-10-10T02:56:58.478Z,101038.31
2022-10-10T02:58:01.030Z,101040.13
2022-10-10T02:59:02.591Z,101030.47
2022-10-10T03:00:05.796Z,101033.13
2022-10-10T03:01:07.692Z,101039.28
2022-10-10T03:02:10.210Z,101037.59
2022-10-10T03:03:11.714Z,101025.28
2022-10-10T03:04:14.521Z,101025.28
2022-10-10T03:05:16.207Z,101029.63
2022-10-10T03:06:18.714Z,101032.28
2022-10-10T03:07:20.271Z,101033.25
2022-10-10T03:08:22.781Z,101030.59
2022-10-10T03:09:24.327Z,101023.47
2022-10-10T03:10:26.836Z,101027.94
2022-10-10T03:11:28.408Z,101027.09
2022-10-10T03:12:32.453Z,101026.38
2022-10-10T03:13:34.093Z,101025.41
2022-10-10T03:14:36.802Z,101030.72
2022-10-10T03:26:24.609Z,101024.06
2022-10-10T03:27:26.149Z,101031.06
2022-10-10T03:28:29.022Z,101024.06
2022-10-10T03:29:30.687Z,101020.44
2022-10-10T03:30:33.164Z,101025.75
2022-10-10T03:31:34.667Z,101027.44
2022-10-10T03:32:37.163Z,101020.44
2022-10-10T03:33:38.896Z,101024.81
2022-10-10T03:34:41.500Z,101025.75
2022-10-10T03:35:43.072Z,101024.06
2022-10-10T03:36:45.638Z,101025.75
2022-10-10T03:37:47.141Z,101025.75
2022-10-10T03:38:49.611Z,101025.75
2022-10-10T03:39:51.270Z,101025.75
2022-10-10T03:40:53.859Z,101028.41
2022-10-10T03:41:56.720Z,101024.06
2022-10-10T03:42:59.660Z,101024.06
2022-10-10T03:44:02.124Z,101017.91
2022-10-10T03:45:04.397Z,101021.53
2022-10-10T03:46:07.072Z,101021.53
2022-10-10T03:47:08.648Z,101025.97
2022-10-10T03:48:11.435Z,101025.97
2022-10-10T03:49:12.979Z,101014.53
2022-10-10T03:50:15.439Z,101018.97
2022-10-10T03:51:17.008Z,101022.47
2022-10-10T03:52:19.569Z,101018.97
2022-10-10T03:53:21.102Z,101019.81
2022-10-10T03:54:23.592Z,101018.97
2022-10-10T03:55:25.127Z,101017.31
2022-10-10T03:56:27.715Z,101018.13
2022-10-10T03:57:30.659Z,101016.31
2022-10-10T03:58:33.257Z,101015.47
2022-10-10T03:59:34.768Z,101017.31
2022-10-10T04:00:37.423Z,101017.31
2022-10-10T04:01:39.025Z,101020.91
2022-10-10T04:02:41.801Z,101014.66
2022-10-10T04:03:43.387Z,101010.31
2022-10-10T04:04:45.856Z,101011.25
2022-10-10T04:05:47.364Z,101015.63
2022-10-10T04:06:49.890Z,101015.63
2022-10-10T04:07:51.455Z,101011.25
2022-10-10T04:08:54.282Z,101004.16
2022-10-10T04:09:55.814Z,101006.94
2022-10-10T04:10:58.408Z,101010.31
2022-10-10T04:12:01.609Z,101008.59
2022-10-10T04:13:04.493Z,101008.59
2022-10-10T04:14:06.983Z,101005.00
2022-10-10T04:15:09.406Z,101008.59
2022-10-10T04:31:23.851Z,101016.31
2022-10-10T04:32:25.485Z,101016.31
2022-10-10T04:33:27.963Z,101009.31
2022-10-10T04:34:29.911Z,101011.00
2022-10-10T04:35:32.495Z,101005.69
2022-10-10T04:36:34.185Z,101006.66
2022-10-10T04:37:37.062Z,101015.47
2022-10-10T04:38:38.672Z,101007.38
2022-10-10T04:39:41.147Z,101007.38
2022-10-10T04:55:55.140Z,101001.34
2022-10-10T04:56:56.717Z,100997.00
2022-10-10T04:57:59.263Z,101004.94
2022-10-10T04:59:00.863Z,101004.00
2022-10-10T05:00:04.545Z,101011.97
2022-10-10T05:01:17.302Z,101004.00
2022-10-10T05:02:19.763Z,101005.81
2022-10-10T05:03:22.381Z,101011.00
2022-10-10T05:04:24.878Z,101011.00
2022-10-10T05:05:26.551Z,101009.31
2022-10-10T05:06:29.134Z,101014.63
2022-10-10T05:07:30.652Z,101007.50
2022-10-10T05:08:33.115Z,101003.16
2022-10-10T05:09:35.683Z,101011.97
2022-10-10T05:10:39.456Z,101013.66
2022-10-10T05:11:42.295Z,101013.66
2022-10-10T05:12:44.764Z,101009.31
2022-10-10T05:13:46.335Z,101009.31
2022-10-10T05:14:48.810Z,101011.00
2022-10-10T05:15:51.840Z,101011.09
2022-10-10T05:16:54.367Z,101004.84
2022-10-10T05:17:55.899Z,101007.50
2022-10-10T05:18:58.454Z,101005.69
2022-10-10T05:19:59.994Z,101006.56
2022-10-10T05:21:03.800Z,101011.00
2022-10-10T05:22:05.905Z,101000.41
2022-10-10T05:23:08.394Z,101011.84
2022-10-10T05:24:10.056Z,101004.84
2022-10-10T05:25:13.148Z,101004.94
2022-10-10T05:26:14.676Z,101004.00
2022-10-10T05:27:18.535Z,100994.34
2022-10-10T05:28:20.158Z,101000.50
2022-10-10T05:29:22.945Z,101001.44
2022-10-10T05:30:24.480Z,100997.00
2022-10-10T05:31:27.071Z,100998.81
2022-10-10T05:32:28.585Z,101005.94
2022-10-10T05:33:31.676Z,101006.75
2022-10-10T05:34:33.230Z,101002.31
2022-10-10T05:35:35.885Z,101003.28
2022-10-10T05:36:37.428Z,101011.25
2022-10-10T05:37:39.920Z,101011.25
2022-10-10T05:38:42.065Z,101007.84
2022-10-10T05:39:44.603Z,101007.84
2022-10-10T05:40:46.131Z,101003.53
2022-10-10T05:41:48.659Z,101006.16
2022-10-10T05:42:51.959Z,101004.47
2022-10-10T05:43:54.733Z,101006.16
2022-10-10T05:44:56.274Z,101006.16
2022-10-10T05:45:59.082Z,101000.03
2022-10-10T05:47:01.664Z,101007.97
2022-10-10T05:48:03.243Z,101010.63
2022-10-10T05:49:05.746Z,101013.38
2022-10-10T05:50:12.675Z,101009.78
2022-10-10T05:51:15.175Z,101016.03
2022-10-10T05:52:16.785Z,101015.06
2022-10-10T05:53:19.491Z,101012.44
2022-10-10T05:54:22.289Z,101015.06
2022-10-10T05:55:25.859Z,101009.78
2022-10-10T05:56:28.591Z,101010.72
2022-10-10T05:57:30.138Z,101006.28
2022-10-10T05:58:34.388Z,101004.47
2022-10-10T05:59:35.880Z,101010.63
2022-10-10T06:00:38.436Z,101010.50
2022-10-10T06:01:40.095Z,101009.63
2022-10-10T06:02:42.637Z,101007.84
2022-10-10T06:03:52.486Z,101017.50
2022-10-10T06:04:55.122Z,101009.53
2022-10-10T06:05:56.771Z,101014.84
2022-10-10T06:06:59.336Z,101007.75
2022-10-10T06:08:09.327Z,101008.59
2022-10-10T06:09:14.507Z,101007.59
2022-10-10T06:10:16.181Z,101019.91
2022-10-10T06:11:20.416Z,101007.59
2022-10-10T06:12:21.933Z,101016.31
2022-10-10T06:13:24.669Z,101028.59
2022-10-10T06:14:29.832Z,101013.53
2022-10-10T06:15:31.410Z,101008.22
2022-10-10T06:40:44.626Z,101028.44
2022-10-10T06:41:48.163Z,101030.88
2022-10-10T06:42:50.973Z,101036.88
2022-10-10T06:43:52.705Z,101032.28
2022-10-10T06:44:55.338Z,101036.66
2022-10-10T06:45:56.982Z,101034.75
2022-10-10T06:47:46.315Z,101032.81
2022-10-10T06:48:49.082Z,101037.03
2022-10-10T06:49:50.615Z,101036.78
2022-10-10T06:50:57.775Z,101034.88
2022-10-10T06:52:00.573Z,101036.44
2022-10-10T06:53:02.334Z,101039.81
2022-10-10T06:54:05.191Z,101036.91
2022-10-10T06:55:07.434Z,101046.47
2022-10-10T06:56:26.294Z,101034.78
2022-10-10T06:57:30.228Z,101049.63
2022-10-10T06:58:32.815Z,101038.91
2022-10-10T06:59:36.368Z,101036.03
2022-10-10T07:00:38.396Z,101034.09
2022-10-10T07:01:43.088Z,101043.63
2022-10-10T07:02:46.049Z,101037.22
2022-10-10T07:03:49.389Z,101037.09
2022-10-10T07:04:52.503Z,101035.06
2022-10-10T07:06:05.108Z,101043.75
2022-10-10T07:07:16.423Z,101039.16
2022-10-10T07:08:19.023Z,101035.41
2022-10-10T07:09:26.688Z,101041.44
2022-10-10T07:10:28.627Z,101041.34
2022-10-10T07:11:39.460Z,101041.09
2022-10-10T07:12:45.056Z,101045.44
2022-10-10T07:13:59.236Z,101040.84
2022-10-10T07:15:01.024Z,101039.91
2022-10-10T07:16:08.849Z,101037.94
2022-10-10T07:17:10.870Z,101038.66
2022-10-10T07:18:14.948Z,101042.06
2022-10-10T07:19:18.965Z,101050.75
2022-10-10T07:20:20.638Z,101047.13
2022-10-10T07:21:23.204Z,101039.88
2022-10-10T07:22:24.937Z,101041.44
2022-10-10T07:23:28.423Z,101041.31
2022-10-10T07:24:30.043Z,101048.09
2022-10-10T07:25:33.039Z,101043.50
2022-10-10T07:26:38.086Z,101048.69
2022-10-10T07:27:42.109Z,101047.59
2022-10-10T07:28:46.727Z,101048.31
2022-10-10T07:29:49.227Z,101047.34
2022-10-10T07:30:59.155Z,101050.72
2022-10-10T07:32:01.849Z,101041.78
2022-10-10T07:33:06.093Z,101048.81
2022-10-10T07:34:08.573Z,101051.31
2022-10-10T07:35:13.996Z,101045.91
2022-10-10T07:36:16.675Z,101051.06
2022-10-10T07:37:18.210Z,101050.97
2022-10-10T07:38:20.847Z,101048.31
2022-10-10T07:39:24.801Z,101048.16
2022-10-10T07:40:27.338Z,101048.06
2022-10-10T07:41:29.128Z,101047.09
2022-10-10T07:42:31.789Z,101054.94
2022-10-10T07:43:34.905Z,101051.44
2022-10-10T07:44:37.456Z,101056.75
2022-10-10T07:45:39.649Z,101052.28
2022-10-10T07:46:42.615Z,101054.81
2022-10-10T07:47:44.176Z,101051.19
2022-10-10T07:48:46.930Z,101053.84
2022-10-10T07:49:49.408Z,101058.19
2022-10-10T07:55:46.013Z,101050.97
2022-10-10T07:56:47.609Z,101057.94
2022-10-10T07:57:53.426Z,101051.78
2022-10-10T07:58:57.799Z,101049.97
2022-10-10T07:59:59.330Z,101054.31
2022-10-10T08:01:06.299Z,101059.50
2022-10-10T08:02:09.468Z,101062.16
2022-10-10T08:03:12.980Z,101056.72
2022-10-10T08:04:14.719Z,101058.44
2022-10-10T08:05:17.578Z,101054.78
2022-10-10T08:06:19.145Z,101051.06
2022-10-10T08:07:21.743Z,101055.53
2022-10-10T08:08:23.351Z,101058.88
2022-10-10T08:09:25.889Z,101054.41
2022-10-10T08:10:29.620Z,101056.97
2022-10-10T08:11:33.411Z,101059.63
2022-10-10T08:12:38.267Z,101061.28
2022-10-10T08:13:44.605Z,101055.97
2022-10-10T08:14:47.764Z,101062.03
2022-10-10T08:15:51.545Z,101056.72
2022-10-10T08:16:53.108Z,101060.94
2022-10-10T08:17:55.801Z,101051.16
2022-10-10T08:18:57.501Z,101051.16
2022-10-10T08:20:00.220Z,101056.22
2022-10-10T08:21:04.874Z,101054.25
2022-10-10T08:22:06.623Z,101063.78
2022-10-10T08:23:09.325Z,101057.41
2022-10-10T08:24:11.805Z,101060.78
2022-10-10T08:25:13.480Z,101063.19
2022-10-10T08:26:17.703Z,101067.41
2022-10-10T08:27:20.784Z,101069.09
2022-10-10T08:28:23.876Z,101063.66
2022-10-10T08:29:26.461Z,101065.31
2022-10-10T08:30:29.537Z,101069.53
2022-10-10T08:31:32.088Z,101067.72
2022-10-10T08:32:34.635Z,101071.25
2022-10-10T08:33:36.344Z,101076.47
2022-10-10T08:34:38.935Z,101073.78
2022-10-10T08:35:41.040Z,101070.13
2022-10-10T08:36:44.290Z,101069.06
2022-10-10T08:37:45.877Z,101071.59
2022-10-10T08:38:48.587Z,101073.13
2022-10-10T08:39:50.214Z,101073.75
2022-10-10T08:40:57.763Z,101072.81
2022-10-10T08:42:01.225Z,101068.19
2022-10-10T08:43:07.661Z,101068.06
2022-10-10T08:44:16.815Z,101068.94
2022-10-10T08:45:23.317Z,101078.47
2022-10-10T08:46:35.156Z,101080.00
2022-10-10T08:47:42.786Z,101079.06
2022-10-10T08:48:46.663Z,101077.09
2022-10-10T08:49:53.095Z,101069.84
2022-10-10T08:50:59.402Z,101075.88
2022-10-10T08:52:06.898Z,101079.13
2022-10-10T08:53:13.497Z,101078.03
2022-10-10T08:54:18.778Z,101082.22
2022-10-10T08:55:30.865Z,101076.53
2022-10-10T08:56:34.882Z,101080.63
2022-10-10T08:57:47.640Z,101077.72
2022-10-10T08:58:55.401Z,101080.13
2022-10-10T09:00:03.415Z,101072.81
2022-10-10T09:02:17.667Z,101081.28
2022-10-10T09:03:31.772Z,101079.34
2022-10-10T09:04:34.513Z,101074.75
2022-10-10T09:05:52.514Z,101071.81
2022-10-10T09:07:10.789Z,101070.69
2022-10-10T09:08:27.073Z,101076.72
2022-10-10T09:09:36.252Z,101079.97
2022-10-10T09:10:47.700Z,101078.75
2022-10-10T09:11:59.926Z,101081.16
2022-10-10T09:13:10.754Z,101077.38
2022-10-10T09:14:24.696Z,101073.31
2022-10-10T09:15:32.370Z,101078.41
2022-10-10T09:16:40.175Z,101072.81
2022-10-10T09:17:47.853Z,101080.41
2022-10-10T09:19:03.248Z,101088.00
2022-10-10T09:20:19.226Z,101077.91
2022-10-10T09:21:24.266Z,101084.69
2022-10-10T09:22:31.729Z,101076.41
2022-10-10T09:23:38.744Z,101077.81
2022-10-10T09:24:46.354Z,101078.38
2022-10-10T09:25:54.146Z,101085.16
2022-10-10T09:27:00.194Z,101090.22
2022-10-10T09:28:08.869Z,101082.94
2022-10-10T09:29:26.378Z,101088.97
2022-10-10T09:30:32.319Z,101086.06
2022-10-10T09:31:38.719Z,101085.69
2022-10-10T09:32:45.952Z,101083.69
2022-10-10T09:33:56.461Z,101087.78
2022-10-10T09:35:02.007Z,101087.38
2022-10-10T09:36:10.033Z,101091.34
2022-10-10T09:37:35.335Z,101088.25
2022-10-10T09:38:44.235Z,101090.63
2022-10-10T09:39:50.268Z,101090.25
2022-10-10T09:42:01.462Z,101088.56
2022-10-10T09:43:12.706Z,101087.31
2022-10-10T09:44:17.242Z,101086.06
2022-10-10T09:45:24.452Z,101090.16
2022-10-10T09:46:27.490Z,101086.19
2022-10-10T09:47:29.356Z,101082.44
2022-10-10T09:48:33.912Z,101080.34
2022-10-10T09:49:37.727Z,101088.06
2022-10-10T09:50:43.069Z,101082.44
2022-10-10T09:51:48.104Z,101086.66
2022-10-10T09:52:51.597Z,101084.66
2022-10-10T09:53:54.144Z,101092.56
2022-10-10T09:55:00.685Z,101087.91
2022-10-10T09:56:06.434Z,101093.97
2022-10-10T09:57:14.986Z,101092.97
2022-10-10T09:58:26.387Z,101082.16
2022-10-10T09:59:36.488Z,101084.94
2022-10-10T10:00:39.021Z,101090.00
2022-10-10T10:01:40.739Z,101091.59
2022-10-10T10:02:43.428Z,101082.44
2022-10-10T10:04:23.311Z,101083.00
2022-10-10T10:05:30.915Z,101082.16
2022-10-10T10:06:33.929Z,101089.19
2022-10-10T10:07:37.125Z,101079.88
2022-10-10T10:08:38.901Z,101082.28
2022-10-10T10:09:41.437Z,101082.72
2022-10-10T10:10:43.015Z,101083.28
2022-10-10T10:11:47.240Z,101087.22
2022-10-10T10:12:50.042Z,101086.94
2022-10-10T10:13:56.312Z,101091.03
2022-10-10T10:15:01.900Z,101089.59
2022-10-10T10:16:08.160Z,101085.66
2022-10-10T10:17:13.811Z,101081.84
2022-10-10T10:18:24.966Z,101089.75
2022-10-10T10:19:32.904Z,101087.63
2022-10-10T10:20:40.507Z,101083.81
2022-10-10T10:21:50.211Z,101084.38
2022-10-10T10:23:58.326Z,101089.13
2022-10-10T10:25:21.420Z,101087.69
2022-10-10T10:26:25.188Z,101089.41
2022-10-10T10:27:29.763Z,101083.75
2022-10-10T10:28:32.324Z,101097.69
2022-10-10T10:29:34.451Z,101091.19
2022-10-10T10:30:37.099Z,101090.78
2022-10-10T10:31:54.644Z,101090.47
2022-10-10T10:33:06.138Z,101098.88
2022-10-10T10:34:19.236Z,101098.59
2022-10-10T10:35:28.588Z,101095.66
2022-10-10T10:36:46.061Z,101093.50
2022-10-10T10:38:02.778Z,101097.75
2022-10-10T10:39:24.486Z,101102.06
2022-10-10T10:40:35.122Z,101098.41
2022-10-10T10:41:44.300Z,101098.41
2022-10-10T10:43:17.477Z,101101.78
2022-10-10T10:44:30.810Z,101095.31
2022-10-10T10:45:44.639Z,101101.34
2022-10-10T10:47:00.933Z,101091.19
2022-10-10T10:48:16.554Z,101091.75
2022-10-10T10:49:25.572Z,101101.16
2022-10-10T10:50:40.835Z,101097.34
2022-10-10T10:52:08.336Z,101098.03
2022-10-10T10:53:23.076Z,101097.06
2022-10-10T10:54:40.337Z,101097.59
2022-10-10T10:55:47.812Z,101100.69
2022-10-10T10:56:56.403Z,101099.28
2022-10-10T11:00:25.585Z,101103.84
2022-10-10T11:01:51.867Z,101093.56
2022-10-10T11:03:35.078Z,101093.94
2022-10-10T11:05:25.052Z,101098.97
2022-10-10T11:07:13.747Z,101087.53
2022-10-10T11:08:29.019Z,101091.44
2022-10-10T11:09:51.812Z,101093.34
2022-10-10T11:11:07.610Z,101087.38
2022-10-10T11:12:19.028Z,101085.25
2022-10-10T11:13:37.739Z,101091.97
2022-10-10T11:14:57.983Z,101102.09
2022-10-10T11:16:13.400Z,101097.94
2022-10-10T11:17:27.424Z,101102.13
2022-10-10T11:18:34.232Z,101099.00
2022-10-10T11:19:43.366Z,101095.88
2022-10-10T11:20:51.229Z,101099.22
2022-10-10T11:21:57.843Z,101099.09
2022-10-10T11:25:30.479Z,101092.88
2022-10-10T11:26:35.369Z,101089.59
2022-10-10T11:27:44.055Z,101093.50
2022-10-10T11:28:51.076Z,101095.56
2022-10-10T11:30:14.865Z,101098.78
2022-10-10T11:31:28.483Z,101096.63
2022-10-10T11:32:37.740Z,101098.66
2022-10-10T11:33:44.415Z,101102.59
2022-10-10T11:35:02.325Z,101090.38
2022-10-10T11:36:10.422Z,101088.75
2022-10-10T11:37:16.603Z,101093.47
2022-10-10T11:38:26.220Z,101087.66
2022-10-10T11:39:34.148Z,101088.19
2022-10-10T11:40:53.705Z,101085.19
2022-10-10T11:42:03.794Z,101084.69
2022-10-10T11:43:13.024Z,101090.56
2022-10-10T11:44:21.561Z,101087.75
2022-10-10T11:45:28.204Z,101084.72
2022-10-10T11:46:41.325Z,101081.88
2022-10-10T11:47:47.253Z,101081.53
2022-10-10T11:48:58.974Z,101087.63
2022-10-10T11:50:05.815Z,101086.44
2022-10-10T11:51:19.899Z,101082.78
2022-10-10T11:52:33.943Z,101081.59
2022-10-10T11:53:43.233Z,101085.97
2022-10-10T11:54:55.900Z,101081.28
2022-10-10T11:56:07.957Z,101081.94
2022-10-10T11:57:17.755Z,101081.78
2022-10-10T11:58:28.256Z,101080.63
2022-10-10T11:59:37.547Z,101083.97
2022-10-10T12:00:44.128Z,101082.88
2022-10-10T12:01:52.323Z,101087.91
2022-10-10T12:02:57.945Z,101088.56
2022-10-10T12:04:01.787Z,101087.41
2022-10-10T12:05:06.017Z,101093.47
2022-10-10T12:06:19.043Z,101092.31
2022-10-10T12:07:28.253Z,101091.13
2022-10-10T12:08:37.764Z,101089.13
2022-10-10T12:09:44.549Z,101087.97
2022-10-10T12:10:51.125Z,101097.53
2022-10-10T12:12:00.712Z,101090.16
2022-10-10T12:13:22.501Z,101088.16
2022-10-10T12:14:27.652Z,101090.66
2022-10-10T12:15:37.247Z,101091.34
2022-10-10T12:16:43.087Z,101087.66
2022-10-10T12:17:46.358Z,101092.53
2022-10-10T12:18:55.439Z,101092.19
2022-10-10T12:20:10.201Z,101089.53
2022-10-10T12:21:14.837Z,101088.53
2022-10-10T12:22:25.145Z,101089.19
2022-10-10T12:23:29.947Z,101090.69
2022-10-10T12:24:37.705Z,101093.22
2022-10-10T12:25:45.078Z,101093.22
2022-10-10T12:27:30.836Z,101089.88
2022-10-10T12:29:02.578Z,101094.03
2022-10-10T12:30:20.365Z,101092.19
2022-10-10T12:31:37.514Z,101090.38
2022-10-10T12:32:43.298Z,101082.81
2022-10-10T12:34:10.050Z,101087.34
2022-10-10T12:35:38.436Z,101091.88
2022-10-10T12:36:56.073Z,101076.28
2022-10-10T12:38:11.888Z,101086.03
2022-10-10T12:39:38.021Z,101074.25
2022-10-10T12:41:10.409Z,101076.78
2022-10-10T12:42:33.658Z,101080.47
2022-10-10T12:43:46.879Z,101083.84
2022-10-10T12:44:48.494Z,101077.44
2022-10-10T12:46:18.590Z,101078.81
2022-10-10T12:47:52.629Z,101077.63
2022-10-10T12:49:06.733Z,101085.19
2022-10-10T12:50:22.488Z,101080.66
2022-10-10T12:51:24.985Z,101080.47
2022-10-10T12:52:32.517Z,101071.41
2022-10-10T12:53:34.601Z,101073.09
2022-10-10T12:54:41.258Z,101080.13
2022-10-10T12:55:45.633Z,101078.13
2022-10-10T12:56:49.148Z,101075.44
2022-10-10T12:57:53.711Z,101067.22
2022-10-10T12:58:57.105Z,101065.38
2022-10-10T13:00:06.304Z,101064.19
2022-10-10T13:01:25.088Z,101063.69
2022-10-10T13:02:29.589Z,101068.06
2022-10-10T13:03:34.667Z,101062.53
2022-10-10T13:04:37.813Z,101067.91
2022-10-10T13:05:40.753Z,101060.00
2022-10-10T13:06:46.391Z,101070.59
2022-10-10T13:07:51.051Z,101065.38
2022-10-10T13:08:55.168Z,101073.28
2022-10-10T13:10:06.590Z,101073.63
2022-10-10T13:11:11.855Z,101070.94
2022-10-10T13:12:23.806Z,101078.13
2022-10-10T13:13:25.326Z,101077.97
2022-10-10T13:14:39.365Z,101080.97
2022-10-10T13:15:52.403Z,101073.09
2022-10-10T13:16:54.532Z,101076.78
2022-10-10T13:17:57.153Z,101073.09
2022-10-10T13:18:59.852Z,101074.94
2022-10-10T13:20:08.963Z,101077.78
2022-10-10T13:21:13.685Z,101071.75
2022-10-10T13:22:17.370Z,101077.13
2022-10-10T13:23:20.023Z,101077.13
2022-10-10T13:24:28.969Z,101076.13
2022-10-10T13:25:35.455Z,101076.13
2022-10-10T13:26:39.948Z,101076.13
2022-10-10T13:27:43.804Z,101074.09
2022-10-10T13:28:45.425Z,101079.31
2022-10-10T13:29:49.688Z,101084.34
2022-10-10T13:30:51.811Z,101087.03
2022-10-10T13:31:56.192Z,101089.56
2022-10-10T13:32:58.725Z,101088.56
2022-10-10T13:34:05.018Z,101086.53
2022-10-10T13:35:15.927Z,101088.22
2022-10-10T13:36:21.467Z,101094.25
2022-10-10T13:37:24.981Z,101088.72
2022-10-10T13:38:26.831Z,101093.94
2022-10-10T13:39:31.470Z,101090.25
2022-10-10T13:40:34.095Z,101093.78
2022-10-10T13:41:35.759Z,101100.00
2022-10-10T13:42:40.171Z,101101.66
2022-10-10T13:43:42.029Z,101103.34
2022-10-10T13:44:51.120Z,101098.81
2022-10-10T13:45:57.388Z,101099.66
2022-10-10T13:47:00.651Z,101095.97
2022-10-10T13:48:21.676Z,101101.34
2022-10-10T13:49:26.998Z,101099.31
2022-10-10T13:50:31.151Z,101110.59
2022-10-10T13:52:01.003Z,101102.66
2022-10-10T13:53:32.169Z,101104.38
2022-10-10T13:54:40.781Z,101105.22
2022-10-10T13:55:43.527Z,101109.41
2022-10-10T13:56:46.135Z,101107.38
2022-10-10T13:57:47.931Z,101111.75
2022-10-10T13:58:52.708Z,101106.22
2022-10-10T14:00:03.678Z,101099.16
2022-10-10T14:01:25.703Z,101099.16
2022-10-10T14:02:32.556Z,101101.84
2022-10-10T14:03:34.569Z,101104.19
2022-10-10T14:04:44.961Z,101097.97
2022-10-10T14:05:46.929Z,101098.16
2022-10-10T14:06:55.670Z,101108.72
2022-10-10T14:07:59.693Z,101107.22
2022-10-10T14:09:09.717Z,101111.75
2022-10-10T14:10:17.831Z,101112.75
2022-10-10T14:11:23.189Z,101112.75
2022-10-10T14:12:31.156Z,101115.63
2022-10-10T14:13:34.428Z,101118.47
2022-10-10T14:14:44.123Z,101114.78
2022-10-10T14:15:47.532Z,101118.47
2022-10-10T14:16:58.772Z,101121.16
2022-10-10T14:18:01.316Z,101124.53